Terminal Aerodrome Forecast
Issued by NWS

Home | Current Version | Previous Version | Text Only | Print | Product List | Glossary On
Versions: 1 2 3 4 5 6 7 8 9 10 11 12
148
FTAK31 PAJN 011738
TAFAGY
TAF
PAGY 011738Z 0118/0218 02012KT 6SM -SHSN OVC040
     FM012200 04020G30KT 6SM -SHSN OVC040
     FM021000 03025G35KT P6SM SCT040 OVC070
      AMD LTD TO CLD VIS AND WIND=

USA.gov is the U.S. government's official web portal to all federal, state and local government web resources and services.